sensor_id;sensor_type;location;lat;lon;timestamp;P1;durP1;ratioP1;P2;durP2;ratioP2
10657;SDS011;5377;43.276;26.930;2023-06-22T00:00:47;8.07;;;7.30;;
10657;SDS011;5377;43.276;26.930;2023-06-22T00:03:14;25.00;;;22.55;;
10657;SDS011;5377;43.276;26.930;2023-06-22T00:05:42;8.27;;;7.47;;
10657;SDS011;5377;43.276;26.930;2023-06-22T00:08:09;8.23;;;7.53;;
10657;SDS011;5377;43.276;26.930;2023-06-22T00:10:35;7.63;;;7.03;;
10657;SDS011;5377;43.276;26.930;2023-06-22T00:13:02;7.90;;;7.30;;
10657;SDS011;5377;43.276;26.930;2023-06-22T00:15:29;8.13;;;7.53;;
10657;SDS011;5377;43.276;26.930;2023-06-22T00:17:56;8.25;;;7.45;;
10657;SDS011;5377;43.276;26.930;2023-06-22T00:20:24;8.80;;;7.95;;
10657;SDS011;5377;43.276;26.930;2023-06-22T00:22:54;8.80;;;8.10;;
10657;SDS011;5377;43.276;26.930;2023-06-22T00:25:21;9.10;;;8.18;;
10657;SDS011;5377;43.276;26.930;2023-06-22T00:27:48;8.90;;;8.10;;
10657;SDS011;5377;43.276;26.930;2023-06-22T00:30:15;8.48;;;7.68;;
10657;SDS011;5377;43.276;26.930;2023-06-22T00:32:42;8.00;;;7.47;;
10657;SDS011;5377;43.276;26.930;2023-06-22T00:35:09;8.73;;;7.95;;
10657;SDS011;5377;43.276;26.930;2023-06-22T00:37:37;8.40;;;7.63;;
10657;SDS011;5377;43.276;26.930;2023-06-22T00:40:09;7.78;;;6.93;;
10657;SDS011;5377;43.276;26.930;2023-06-22T00:42:37;7.57;;;6.90;;
10657;SDS011;5377;43.276;26.930;2023-06-22T00:45:05;7.80;;;7.20;;
10657;SDS011;5377;43.276;26.930;2023-06-22T00:47:33;8.48;;;7.82;;
10657;SDS011;5377;43.276;26.930;2023-06-22T00:50:01;7.80;;;7.10;;
10657;SDS011;5377;43.276;26.930;2023-06-22T00:52:29;8.35;;;7.55;;
10657;SDS011;5377;43.276;26.930;2023-06-22T00:54:58;8.50;;;7.90;;
10657;SDS011;5377;43.276;26.930;2023-06-22T00:57:28;11.98;;;8.80;;
10657;SDS011;5377;43.276;26.930;2023-06-22T00:59:55;10.32;;;9.43;;
10657;SDS011;5377;43.276;26.930;2023-06-22T01:02:22;8.80;;;8.00;;
10657;SDS011;5377;43.276;26.930;2023-06-22T01:04:48;9.52;;;8.63;;
10657;SDS011;5377;43.276;26.930;2023-06-22T01:07:17;9.68;;;8.77;;
10657;SDS011;5377;43.276;26.930;2023-06-22T01:09:51;11.45;;;9.00;;
10657;SDS011;5377;43.276;26.930;2023-06-22T01:12:23;11.23;;;9.63;;
10657;SDS011;5377;43.276;26.930;2023-06-22T01:14:55;11.45;;;10.35;;
10657;SDS011;5377;43.276;26.930;2023-06-22T01:17:27;12.07;;;10.95;;
10657;SDS011;5377;43.276;26.930;2023-06-22T01:19:55;12.85;;;10.90;;
10657;SDS011;5377;43.276;26.930;2023-06-22T01:22:24;12.30;;;10.77;;
10657;SDS011;5377;43.276;26.930;2023-06-22T01:24:57;11.68;;;10.55;;
10657;SDS011;5377;43.276;26.930;2023-06-22T01:27:36;13.68;;;10.45;;
10657;SDS011;5377;43.276;26.930;2023-06-22T01:30:15;12.65;;;11.32;;
10657;SDS011;5377;43.276;26.930;2023-06-22T01:32:44;12.10;;;10.93;;
10657;SDS011;5377;43.276;26.930;2023-06-22T01:35:12;12.75;;;10.73;;
10657;SDS011;5377;43.276;26.930;2023-06-22T01:37:39;11.88;;;9.68;;
10657;SDS011;5377;43.276;26.930;2023-06-22T01:40:06;11.63;;;10.40;;
10657;SDS011;5377;43.276;26.930;2023-06-22T01:42:35;11.68;;;10.68;;
10657;SDS011;5377;43.276;26.930;2023-06-22T01:45:04;12.00;;;10.75;;
10657;SDS011;5377;43.276;26.930;2023-06-22T01:47:34;11.50;;;10.30;;
10657;SDS011;5377;43.276;26.930;2023-06-22T01:50:02;11.45;;;9.82;;
10657;SDS011;5377;43.276;26.930;2023-06-22T01:52:29;9.63;;;8.50;;
10657;SDS011;5377;43.276;26.930;2023-06-22T01:54:56;10.70;;;9.80;;
10657;SDS011;5377;43.276;26.930;2023-06-22T01:57:23;10.07;;;9.18;;
10657;SDS011;5377;43.276;26.930;2023-06-22T01:59:53;11.52;;;9.40;;
10657;SDS011;5377;43.276;26.930;2023-06-22T02:02:26;13.00;;;8.98;;
10657;SDS011;5377;43.276;26.930;2023-06-22T02:04:59;9.18;;;8.48;;
10657;SDS011;5377;43.276;26.930;2023-06-22T02:07:31;9.02;;;8.23;;
10657;SDS011;5377;43.276;26.930;2023-06-22T02:10:00;9.65;;;8.65;;
10657;SDS011;5377;43.276;26.930;2023-06-22T02:12:29;10.30;;;9.38;;
10657;SDS011;5377;43.276;26.930;2023-06-22T02:14:58;17.58;;;15.75;;
10657;SDS011;5377;43.276;26.930;2023-06-22T02:17:26;16.77;;;15.30;;
10657;SDS011;5377;43.276;26.930;2023-06-22T02:19:53;17.92;;;16.13;;
10657;SDS011;5377;43.276;26.930;2023-06-22T02:22:21;10.50;;;9.60;;
10657;SDS011;5377;43.276;26.930;2023-06-22T02:24:48;13.77;;;11.15;;
10657;SDS011;5377;43.276;26.930;2023-06-22T02:27:15;8.98;;;8.20;;
10657;SDS011;5377;43.276;26.930;2023-06-22T02:29:42;14.00;;;12.70;;
10657;SDS011;5377;43.276;26.930;2023-06-22T02:32:09;9.82;;;9.02;;
10657;SDS011;5377;43.276;26.930;2023-06-22T02:34:36;11.63;;;10.63;;
10657;SDS011;5377;43.276;26.930;2023-06-22T02:37:03;12.98;;;11.73;;
10657;SDS011;5377;43.276;26.930;2023-06-22T02:39:31;10.82;;;9.75;;
10657;SDS011;5377;43.276;26.930;2023-06-22T02:41:58;9.65;;;8.38;;
10657;SDS011;5377;43.276;26.930;2023-06-22T02:44:25;8.45;;;7.85;;
10657;SDS011;5377;43.276;26.930;2023-06-22T02:46:52;9.90;;;8.45;;
10657;SDS011;5377;43.276;26.930;2023-06-22T02:49:19;8.50;;;7.82;;
10657;SDS011;5377;43.276;26.930;2023-06-22T02:51:46;10.27;;;9.38;;
10657;SDS011;5377;43.276;26.930;2023-06-22T02:54:14;10.95;;;9.93;;
10657;SDS011;5377;43.276;26.930;2023-06-22T02:56:42;9.05;;;8.15;;
10657;SDS011;5377;43.276;26.930;2023-06-22T02:59:10;8.95;;;8.15;;
10657;SDS011;5377;43.276;26.930;2023-06-22T03:01:36;6.78;;;6.20;;
10657;SDS011;5377;43.276;26.930;2023-06-22T03:04:05;9.82;;;8.90;;
10657;SDS011;5377;43.276;26.930;2023-06-22T03:06:32;10.07;;;8.95;;
10657;SDS011;5377;43.276;26.930;2023-06-22T03:08:59;8.30;;;7.38;;
10657;SDS011;5377;43.276;26.930;2023-06-22T03:11:29;7.90;;;7.13;;
10657;SDS011;5377;43.276;26.930;2023-06-22T03:13:57;8.63;;;7.75;;
10657;SDS011;5377;43.276;26.930;2023-06-22T03:16:23;9.05;;;8.07;;
10657;SDS011;5377;43.276;26.930;2023-06-22T03:18:50;11.75;;;8.43;;
10657;SDS011;5377;43.276;26.930;2023-06-22T03:21:18;10.65;;;9.55;;
10657;SDS011;5377;43.276;26.930;2023-06-22T03:23:45;11.45;;;9.73;;
10657;SDS011;5377;43.276;26.930;2023-06-22T03:26:12;10.45;;;8.70;;
10657;SDS011;5377;43.276;26.930;2023-06-22T03:28:38;10.30;;;9.30;;
10657;SDS011;5377;43.276;26.930;2023-06-22T03:31:07;11.13;;;9.18;;
10657;SDS011;5377;43.276;26.930;2023-06-22T03:33:34;10.50;;;9.13;;
10657;SDS011;5377;43.276;26.930;2023-06-22T03:36:01;12.18;;;9.57;;
10657;SDS011;5377;43.276;26.930;2023-06-22T03:38:28;10.55;;;9.35;;
10657;SDS011;5377;43.276;26.930;2023-06-22T03:40:55;11.27;;;9.23;;
10657;SDS011;5377;43.276;26.930;2023-06-22T03:43:22;11.90;;;9.95;;
10657;SDS011;5377;43.276;26.930;2023-06-22T03:45:49;9.43;;;8.52;;
10657;SDS011;5377;43.276;26.930;2023-06-22T03:48:17;10.60;;;8.90;;
10657;SDS011;5377;43.276;26.930;2023-06-22T03:50:44;11.18;;;9.25;;
10657;SDS011;5377;43.276;26.930;2023-06-22T03:53:11;14.38;;;9.27;;
10657;SDS011;5377;43.276;26.930;2023-06-22T03:55:40;12.07;;;9.30;;
10657;SDS011;5377;43.276;26.930;2023-06-22T03:58:14;10.80;;;9.73;;
10657;SDS011;5377;43.276;26.930;2023-06-22T04:00:41;14.85;;;9.43;;
10657;SDS011;5377;43.276;26.930;2023-06-22T04:03:07;10.80;;;9.07;;
10657;SDS011;5377;43.276;26.930;2023-06-22T04:05:36;9.35;;;8.45;;
10657;SDS011;5377;43.276;26.930;2023-06-22T04:08:02;12.90;;;8.50;;
10657;SDS011;5377;43.276;26.930;2023-06-22T04:10:30;12.43;;;10.68;;
10657;SDS011;5377;43.276;26.930;2023-06-22T04:12:56;9.75;;;8.75;;
10657;SDS011;5377;43.276;26.930;2023-06-22T04:15:23;9.05;;;7.88;;
10657;SDS011;5377;43.276;26.930;2023-06-22T04:17:50;9.15;;;7.82;;
10657;SDS011;5377;43.276;26.930;2023-06-22T04:20:17;10.15;;;8.77;;
10657;SDS011;5377;43.276;26.930;2023-06-22T04:22:45;11.40;;;10.00;;
10657;SDS011;5377;43.276;26.930;2023-06-22T04:25:12;13.77;;;12.20;;
10657;SDS011;5377;43.276;26.930;2023-06-22T04:27:38;12.18;;;9.65;;
10657;SDS011;5377;43.276;26.930;2023-06-22T04:30:06;12.25;;;11.07;;
10657;SDS011;5377;43.276;26.930;2023-06-22T04:32:33;12.70;;;10.10;;
10657;SDS011;5377;43.276;26.930;2023-06-22T04:35:01;12.07;;;10.32;;
10657;SDS011;5377;43.276;26.930;2023-06-22T04:37:29;14.63;;;10.15;;
10657;SDS011;5377;43.276;26.930;2023-06-22T04:39:57;12.57;;;10.05;;
10657;SDS011;5377;43.276;26.930;2023-06-22T04:42:25;10.05;;;9.13;;
10657;SDS011;5377;43.276;26.930;2023-06-22T04:44:52;10.88;;;9.15;;
10657;SDS011;5377;43.276;26.930;2023-06-22T04:47:19;10.98;;;8.32;;
10657;SDS011;5377;43.276;26.930;2023-06-22T04:49:46;13.48;;;9.02;;
10657;SDS011;5377;43.276;26.930;2023-06-22T04:52:13;10.27;;;8.88;;
10657;SDS011;5377;43.276;26.930;2023-06-22T04:54:42;7.93;;;7.18;;
10657;SDS011;5377;43.276;26.930;2023-06-22T04:57:14;7.43;;;6.70;;
10657;SDS011;5377;43.276;26.930;2023-06-22T04:59:41;8.85;;;6.68;;
10657;SDS011;5377;43.276;26.930;2023-06-22T05:02:09;8.18;;;6.30;;
10657;SDS011;5377;43.276;26.930;2023-06-22T05:04:36;12.55;;;7.18;;
10657;SDS011;5377;43.276;26.930;2023-06-22T05:07:04;15.55;;;7.10;;
10657;SDS011;5377;43.276;26.930;2023-06-22T05:09:31;7.85;;;7.05;;
10657;SDS011;5377;43.276;26.930;2023-06-22T05:11:58;7.25;;;6.60;;
10657;SDS011;5377;43.276;26.930;2023-06-22T05:14:29;9.73;;;6.72;;
10657;SDS011;5377;43.276;26.930;2023-06-22T05:16:56;9.43;;;7.40;;
10657;SDS011;5377;43.276;26.930;2023-06-22T05:19:24;14.75;;;7.32;;
10657;SDS011;5377;43.276;26.930;2023-06-22T05:21:58;16.67;;;8.70;;
10657;SDS011;5377;43.276;26.930;2023-06-22T05:24:25;20.00;;;9.27;;
10657;SDS011;5377;43.276;26.930;2023-06-22T05:26:51;13.10;;;7.32;;
10657;SDS011;5377;43.276;26.930;2023-06-22T05:29:18;13.77;;;8.05;;
10657;SDS011;5377;43.276;26.930;2023-06-22T05:31:48;9.70;;;5.97;;
10657;SDS011;5377;43.276;26.930;2023-06-22T05:34:15;10.15;;;7.85;;
10657;SDS011;5377;43.276;26.930;2023-06-22T05:36:42;21.73;;;8.50;;
10657;SDS011;5377;43.276;26.930;2023-06-22T05:39:12;14.20;;;7.30;;
10657;SDS011;5377;43.276;26.930;2023-06-22T05:41:39;12.20;;;6.28;;
10657;SDS011;5377;43.276;26.930;2023-06-22T05:44:06;18.58;;;7.18;;
10657;SDS011;5377;43.276;26.930;2023-06-22T05:46:33;7.57;;;5.55;;
10657;SDS011;5377;43.276;26.930;2023-06-22T05:49:01;12.43;;;6.28;;
10657;SDS011;5377;43.276;26.930;2023-06-22T05:51:27;6.88;;;5.70;;
10657;SDS011;5377;43.276;26.930;2023-06-22T05:53:54;9.65;;;6.63;;
10657;SDS011;5377;43.276;26.930;2023-06-22T05:56:21;10.93;;;6.20;;
10657;SDS011;5377;43.276;26.930;2023-06-22T05:58:48;14.13;;;7.25;;
10657;SDS011;5377;43.276;26.930;2023-06-22T06:01:14;10.63;;;6.78;;
10657;SDS011;5377;43.276;26.930;2023-06-22T06:03:41;7.60;;;6.78;;
10657;SDS011;5377;43.276;26.930;2023-06-22T06:06:10;7.75;;;6.68;;
10657;SDS011;5377;43.276;26.930;2023-06-22T06:08:37;12.50;;;5.95;;
10657;SDS011;5377;43.276;26.930;2023-06-22T06:11:04;12.85;;;11.20;;
10657;SDS011;5377;43.276;26.930;2023-06-22T06:13:31;28.15;;;9.10;;
10657;SDS011;5377;43.276;26.930;2023-06-22T06:15:58;12.77;;;6.88;;
10657;SDS011;5377;43.276;26.930;2023-06-22T06:18:26;13.25;;;7.55;;
10657;SDS011;5377;43.276;26.930;2023-06-22T06:20:54;14.02;;;7.85;;
10657;SDS011;5377;43.276;26.930;2023-06-22T06:23:22;18.00;;;7.97;;
10657;SDS011;5377;43.276;26.930;2023-06-22T06:25:49;16.55;;;8.20;;
10657;SDS011;5377;43.276;26.930;2023-06-22T06:28:15;16.85;;;11.43;;
10657;SDS011;5377;43.276;26.930;2023-06-22T06:30:42;20.42;;;9.90;;
10657;SDS011;5377;43.276;26.930;2023-06-22T06:33:09;14.30;;;7.05;;
10657;SDS011;5377;43.276;26.930;2023-06-22T06:35:36;6.63;;;6.00;;
10657;SDS011;5377;43.276;26.930;2023-06-22T06:38:02;11.52;;;6.63;;
10657;SDS011;5377;43.276;26.930;2023-06-22T06:40:31;6.78;;;5.47;;
10657;SDS011;5377;43.276;26.930;2023-06-22T06:42:57;6.28;;;5.68;;
10657;SDS011;5377;43.276;26.930;2023-06-22T06:45:24;5.10;;;4.70;;
10657;SDS011;5377;43.276;26.930;2023-06-22T06:47:53;15.20;;;7.35;;
10657;SDS011;5377;43.276;26.930;2023-06-22T06:50:20;13.35;;;6.80;;
10657;SDS011;5377;43.276;26.930;2023-06-22T06:52:47;8.93;;;6.38;;
10657;SDS011;5377;43.276;26.930;2023-06-22T06:55:15;13.63;;;6.50;;
10657;SDS011;5377;43.276;26.930;2023-06-22T06:57:43;9.35;;;5.50;;
10657;SDS011;5377;43.276;26.930;2023-06-22T07:00:13;6.55;;;5.95;;
10657;SDS011;5377;43.276;26.930;2023-06-22T07:02:41;8.25;;;5.70;;
10657;SDS011;5377;43.276;26.930;2023-06-22T07:05:09;5.88;;;5.38;;
10657;SDS011;5377;43.276;26.930;2023-06-22T07:07:38;7.53;;;5.15;;
10657;SDS011;5377;43.276;26.930;2023-06-22T07:10:06;6.43;;;5.90;;
10657;SDS011;5377;43.276;26.930;2023-06-22T07:12:34;10.02;;;6.38;;
10657;SDS011;5377;43.276;26.930;2023-06-22T07:15:03;7.05;;;6.30;;
10657;SDS011;5377;43.276;26.930;2023-06-22T07:17:33;7.57;;;6.82;;
10657;SDS011;5377;43.276;26.930;2023-06-22T07:20:00;6.57;;;6.07;;
10657;SDS011;5377;43.276;26.930;2023-06-22T07:22:27;7.78;;;7.07;;
10657;SDS011;5377;43.276;26.930;2023-06-22T07:24:53;10.75;;;6.50;;
10657;SDS011;5377;43.276;26.930;2023-06-22T07:27:21;8.38;;;5.63;;
10657;SDS011;5377;43.276;26.930;2023-06-22T07:29:48;6.60;;;5.55;;
10657;SDS011;5377;43.276;26.930;2023-06-22T07:32:16;6.22;;;4.80;;
10657;SDS011;5377;43.276;26.930;2023-06-22T07:34:43;6.65;;;5.07;;
10657;SDS011;5377;43.276;26.930;2023-06-22T07:37:09;6.68;;;5.55;;
10657;SDS011;5377;43.276;26.930;2023-06-22T07:39:36;10.98;;;6.60;;
10657;SDS011;5377;43.276;26.930;2023-06-22T07:42:04;11.68;;;6.35;;
10657;SDS011;5377;43.276;26.930;2023-06-22T07:44:31;7.80;;;5.78;;
10657;SDS011;5377;43.276;26.930;2023-06-22T07:46:58;10.43;;;6.47;;
10657;SDS011;5377;43.276;26.930;2023-06-22T07:49:27;12.80;;;8.10;;
10657;SDS011;5377;43.276;26.930;2023-06-22T07:51:54;9.80;;;6.30;;
10657;SDS011;5377;43.276;26.930;2023-06-22T07:54:21;9.27;;;6.97;;
10657;SDS011;5377;43.276;26.930;2023-06-22T07:56:48;7.43;;;6.60;;
10657;SDS011;5377;43.276;26.930;2023-06-22T07:59:15;7.28;;;6.57;;
10657;SDS011;5377;43.276;26.930;2023-06-22T08:01:42;16.50;;;9.40;;
10657;SDS011;5377;43.276;26.930;2023-06-22T08:04:09;13.63;;;8.50;;
10657;SDS011;5377;43.276;26.930;2023-06-22T08:06:37;19.67;;;8.73;;
10657;SDS011;5377;43.276;26.930;2023-06-22T08:09:04;13.05;;;7.75;;
10657;SDS011;5377;43.276;26.930;2023-06-22T08:11:30;6.40;;;6.00;;
10657;SDS011;5377;43.276;26.930;2023-06-22T08:13:57;6.47;;;5.70;;
10657;SDS011;5377;43.276;26.930;2023-06-22T08:16:24;7.28;;;5.88;;
10657;SDS011;5377;43.276;26.930;2023-06-22T08:18:51;6.25;;;5.50;;
10657;SDS011;5377;43.276;26.930;2023-06-22T08:21:18;5.43;;;5.03;;
10657;SDS011;5377;43.276;26.930;2023-06-22T08:23:46;9.88;;;5.60;;
10657;SDS011;5377;43.276;26.930;2023-06-22T08:26:13;6.45;;;5.82;;
10657;SDS011;5377;43.276;26.930;2023-06-22T08:28:40;7.80;;;5.47;;
10657;SDS011;5377;43.276;26.930;2023-06-22T08:31:07;5.18;;;4.68;;
10657;SDS011;5377;43.276;26.930;2023-06-22T08:33:39;5.20;;;4.72;;
10657;SDS011;5377;43.276;26.930;2023-06-22T08:36:05;5.40;;;4.63;;
10657;SDS011;5377;43.276;26.930;2023-06-22T08:38:33;6.13;;;5.53;;
10657;SDS011;5377;43.276;26.930;2023-06-22T08:41:01;16.33;;;7.40;;
10657;SDS011;5377;43.276;26.930;2023-06-22T08:43:28;18.33;;;6.38;;
10657;SDS011;5377;43.276;26.930;2023-06-22T08:45:55;10.93;;;5.82;;
10657;SDS011;5377;43.276;26.930;2023-06-22T08:48:22;15.25;;;6.15;;
10657;SDS011;5377;43.276;26.930;2023-06-22T08:50:48;7.57;;;4.45;;
10657;SDS011;5377;43.276;26.930;2023-06-22T08:53:15;4.38;;;4.13;;
10657;SDS011;5377;43.276;26.930;2023-06-22T08:55:42;5.13;;;4.72;;
10657;SDS011;5377;43.276;26.930;2023-06-22T08:58:10;8.63;;;5.35;;
10657;SDS011;5377;43.276;26.930;2023-06-22T09:00:37;11.98;;;5.93;;
10657;SDS011;5377;43.276;26.930;2023-06-22T09:03:04;8.30;;;4.93;;
10657;SDS011;5377;43.276;26.930;2023-06-22T09:05:31;6.55;;;4.70;;
10657;SDS011;5377;43.276;26.930;2023-06-22T09:07:58;9.95;;;4.60;;
10657;SDS011;5377;43.276;26.930;2023-06-22T09:10:25;8.20;;;5.15;;
10657;SDS011;5377;43.276;26.930;2023-06-22T09:12:52;7.40;;;5.32;;
10657;SDS011;5377;43.276;26.930;2023-06-22T09:15:20;7.93;;;5.30;;
10657;SDS011;5377;43.276;26.930;2023-06-22T09:17:47;4.50;;;4.20;;
10657;SDS011;5377;43.276;26.930;2023-06-22T09:20:14;5.15;;;4.68;;
10657;SDS011;5377;43.276;26.930;2023-06-22T09:22:41;5.93;;;5.25;;
10657;SDS011;5377;43.276;26.930;2023-06-22T09:25:08;9.75;;;5.40;;
10657;SDS011;5377;43.276;26.930;2023-06-22T09:27:35;7.28;;;5.32;;
10657;SDS011;5377;43.276;26.930;2023-06-22T09:30:02;5.47;;;4.93;;
10657;SDS011;5377;43.276;26.930;2023-06-22T09:32:31;4.78;;;4.20;;
10657;SDS011;5377;43.276;26.930;2023-06-22T09:34:58;5.28;;;4.55;;
10657;SDS011;5377;43.276;26.930;2023-06-22T09:37:25;5.53;;;5.00;;
10657;SDS011;5377;43.276;26.930;2023-06-22T09:39:52;9.10;;;5.50;;
10657;SDS011;5377;43.276;26.930;2023-06-22T09:42:18;8.13;;;5.60;;
10657;SDS011;5377;43.276;26.930;2023-06-22T09:44:46;7.93;;;5.78;;
10657;SDS011;5377;43.276;26.930;2023-06-22T09:47:13;5.35;;;4.95;;
10657;SDS011;5377;43.276;26.930;2023-06-22T09:49:41;4.88;;;4.45;;
10657;SDS011;5377;43.276;26.930;2023-06-22T09:52:07;5.72;;;5.00;;
10657;SDS011;5377;43.276;26.930;2023-06-22T09:54:36;5.32;;;4.93;;
10657;SDS011;5377;43.276;26.930;2023-06-22T09:57:03;8.55;;;5.53;;
10657;SDS011;5377;43.276;26.930;2023-06-22T09:59:30;5.55;;;5.07;;
10657;SDS011;5377;43.276;26.930;2023-06-22T10:01:57;10.27;;;6.15;;
10657;SDS011;5377;43.276;26.930;2023-06-22T10:04:24;9.88;;;6.25;;
10657;SDS011;5377;43.276;26.930;2023-06-22T10:06:52;5.38;;;4.95;;
10657;SDS011;5377;43.276;26.930;2023-06-22T10:09:19;6.75;;;5.10;;
10657;SDS011;5377;43.276;26.930;2023-06-22T10:11:46;6.32;;;5.82;;
10657;SDS011;5377;43.276;26.930;2023-06-22T10:14:13;8.25;;;6.05;;
10657;SDS011;5377;43.276;26.930;2023-06-22T10:16:39;4.82;;;4.45;;
10657;SDS011;5377;43.276;26.930;2023-06-22T10:19:06;5.32;;;4.82;;
10657;SDS011;5377;43.276;26.930;2023-06-22T10:21:33;5.15;;;4.78;;
10657;SDS011;5377;43.276;26.930;2023-06-22T10:24:01;7.25;;;6.05;;
10657;SDS011;5377;43.276;26.930;2023-06-22T10:26:31;16.17;;;6.70;;
10657;SDS011;5377;43.276;26.930;2023-06-22T10:28:58;5.93;;;5.40;;
10657;SDS011;5377;43.276;26.930;2023-06-22T10:31:25;5.78;;;5.30;;
10657;SDS011;5377;43.276;26.930;2023-06-22T10:33:52;5.32;;;4.75;;
10657;SDS011;5377;43.276;26.930;2023-06-22T10:36:20;15.38;;;7.43;;
10657;SDS011;5377;43.276;26.930;2023-06-22T10:38:47;11.77;;;6.15;;
10657;SDS011;5377;43.276;26.930;2023-06-22T10:41:16;9.98;;;5.95;;
10657;SDS011;5377;43.276;26.930;2023-06-22T10:43:43;9.90;;;6.43;;
10657;SDS011;5377;43.276;26.930;2023-06-22T10:46:10;9.75;;;5.93;;
10657;SDS011;5377;43.276;26.930;2023-06-22T10:48:37;10.90;;;4.97;;
10657;SDS011;5377;43.276;26.930;2023-06-22T10:51:03;4.85;;;4.35;;
10657;SDS011;5377;43.276;26.930;2023-06-22T10:53:30;4.80;;;4.47;;
10657;SDS011;5377;43.276;26.930;2023-06-22T10:55:58;16.00;;;7.70;;
10657;SDS011;5377;43.276;26.930;2023-06-22T10:58:26;5.95;;;4.85;;
10657;SDS011;5377;43.276;26.930;2023-06-22T11:00:53;5.18;;;4.43;;
10657;SDS011;5377;43.276;26.930;2023-06-22T11:03:19;7.78;;;6.65;;
10657;SDS011;5377;43.276;26.930;2023-06-22T11:05:46;11.65;;;5.82;;
10657;SDS011;5377;43.276;26.930;2023-06-22T11:08:13;7.68;;;5.47;;
10657;SDS011;5377;43.276;26.930;2023-06-22T11:10:40;5.20;;;4.75;;
10657;SDS011;5377;43.276;26.930;2023-06-22T11:13:07;13.18;;;5.90;;
10657;SDS011;5377;43.276;26.930;2023-06-22T11:15:36;5.13;;;4.65;;
10657;SDS011;5377;43.276;26.930;2023-06-22T11:18:03;7.68;;;4.70;;
10657;SDS011;5377;43.276;26.930;2023-06-22T11:20:32;7.72;;;4.88;;
10657;SDS011;5377;43.276;26.930;2023-06-22T11:23:03;4.95;;;4.45;;
10657;SDS011;5377;43.276;26.930;2023-06-22T11:25:30;12.10;;;4.38;;
10657;SDS011;5377;43.276;26.930;2023-06-22T11:27:57;22.48;;;6.75;;
10657;SDS011;5377;43.276;26.930;2023-06-22T11:30:24;4.63;;;4.38;;
10657;SDS011;5377;43.276;26.930;2023-06-22T11:32:52;4.45;;;4.05;;
10657;SDS011;5377;43.276;26.930;2023-06-22T11:35:19;4.13;;;3.72;;
10657;SDS011;5377;43.276;26.930;2023-06-22T11:37:45;5.22;;;4.80;;
10657;SDS011;5377;43.276;26.930;2023-06-22T11:40:12;8.55;;;4.50;;
10657;SDS011;5377;43.276;26.930;2023-06-22T11:42:39;4.93;;;4.32;;
10657;SDS011;5377;43.276;26.930;2023-06-22T11:45:06;4.53;;;4.13;;
10657;SDS011;5377;43.276;26.930;2023-06-22T11:47:33;4.07;;;3.88;;
10657;SDS011;5377;43.276;26.930;2023-06-22T11:50:03;4.45;;;4.05;;
10657;SDS011;5377;43.276;26.930;2023-06-22T11:52:30;9.20;;;4.60;;
10657;SDS011;5377;43.276;26.930;2023-06-22T11:54:57;18.48;;;7.85;;
10657;SDS011;5377;43.276;26.930;2023-06-22T11:57:24;5.78;;;4.30;;
10657;SDS011;5377;43.276;26.930;2023-06-22T11:59:51;8.30;;;4.25;;
10657;SDS011;5377;43.276;26.930;2023-06-22T12:05:39;11.65;;;5.55;;
10657;SDS011;5377;43.276;26.930;2023-06-22T12:08:06;10.70;;;5.45;;
10657;SDS011;5377;43.276;26.930;2023-06-22T12:10:32;6.90;;;5.38;;
10657;SDS011;5377;43.276;26.930;2023-06-22T12:12:59;6.10;;;5.50;;
10657;SDS011;5377;43.276;26.930;2023-06-22T12:15:26;5.97;;;4.82;;
10657;SDS011;5377;43.276;26.930;2023-06-22T12:17:53;9.35;;;5.40;;
10657;SDS011;5377;43.276;26.930;2023-06-22T12:20:20;12.30;;;5.43;;
10657;SDS011;5377;43.276;26.930;2023-06-22T12:22:48;8.60;;;4.63;;
10657;SDS011;5377;43.276;26.930;2023-06-22T12:25:16;3.97;;;3.78;;
10657;SDS011;5377;43.276;26.930;2023-06-22T12:27:43;9.95;;;5.80;;
10657;SDS011;5377;43.276;26.930;2023-06-22T12:30:10;5.05;;;4.75;;
10657;SDS011;5377;43.276;26.930;2023-06-22T12:32:37;8.85;;;7.03;;
10657;SDS011;5377;43.276;26.930;2023-06-22T12:35:04;5.93;;;5.57;;
10657;SDS011;5377;43.276;26.930;2023-06-22T12:37:37;9.40;;;6.13;;
10657;SDS011;5377;43.276;26.930;2023-06-22T12:40:06;14.25;;;6.57;;
10657;SDS011;5377;43.276;26.930;2023-06-22T12:42:33;6.72;;;4.00;;
10657;SDS011;5377;43.276;26.930;2023-06-22T12:45:00;6.35;;;5.90;;
10657;SDS011;5377;43.276;26.930;2023-06-22T12:47:27;23.23;;;7.95;;
10657;SDS011;5377;43.276;26.930;2023-06-22T12:49:54;7.50;;;5.50;;
10657;SDS011;5377;43.276;26.930;2023-06-22T12:52:21;25.60;;;10.93;;
10657;SDS011;5377;43.276;26.930;2023-06-22T12:54:48;4.40;;;4.07;;
10657;SDS011;5377;43.276;26.930;2023-06-22T12:57:16;11.65;;;5.70;;
10657;SDS011;5377;43.276;26.930;2023-06-22T12:59:44;4.95;;;4.63;;
10657;SDS011;5377;43.276;26.930;2023-06-22T13:02:11;5.47;;;4.97;;
10657;SDS011;5377;43.276;26.930;2023-06-22T13:04:38;4.70;;;4.40;;
10657;SDS011;5377;43.276;26.930;2023-06-22T13:07:05;11.30;;;8.30;;
10657;SDS011;5377;43.276;26.930;2023-06-22T13:09:32;10.57;;;6.88;;
10657;SDS011;5377;43.276;26.930;2023-06-22T13:12:00;5.70;;;4.30;;
10657;SDS011;5377;43.276;26.930;2023-06-22T13:14:28;4.95;;;4.55;;
10657;SDS011;5377;43.276;26.930;2023-06-22T13:16:55;7.13;;;6.53;;
10657;SDS011;5377;43.276;26.930;2023-06-22T13:19:21;8.80;;;8.15;;
10657;SDS011;5377;43.276;26.930;2023-06-22T13:21:48;4.93;;;4.53;;
10657;SDS011;5377;43.276;26.930;2023-06-22T13:24:15;5.60;;;5.03;;
10657;SDS011;5377;43.276;26.930;2023-06-22T13:26:42;9.07;;;5.57;;
10657;SDS011;5377;43.276;26.930;2023-06-22T13:29:08;6.93;;;5.30;;
10657;SDS011;5377;43.276;26.930;2023-06-22T13:31:37;7.03;;;4.30;;
10657;SDS011;5377;43.276;26.930;2023-06-22T13:34:04;25.27;;;7.55;;
10657;SDS011;5377;43.276;26.930;2023-06-22T13:36:31;7.43;;;4.90;;
10657;SDS011;5377;43.276;26.930;2023-06-22T13:38:58;9.45;;;5.75;;
10657;SDS011;5377;43.276;26.930;2023-06-22T13:41:25;14.52;;;5.55;;
10657;SDS011;5377;43.276;26.930;2023-06-22T13:43:52;7.07;;;5.85;;
10657;SDS011;5377;43.276;26.930;2023-06-22T13:46:18;8.18;;;5.20;;
10657;SDS011;5377;43.276;26.930;2023-06-22T13:48:47;8.90;;;5.38;;
10657;SDS011;5377;43.276;26.930;2023-06-22T13:51:13;10.30;;;4.88;;
10657;SDS011;5377;43.276;26.930;2023-06-22T13:53:40;8.50;;;7.70;;
10657;SDS011;5377;43.276;26.930;2023-06-22T13:56:07;5.13;;;4.72;;
10657;SDS011;5377;43.276;26.930;2023-06-22T13:58:34;4.45;;;4.25;;
10657;SDS011;5377;43.276;26.930;2023-06-22T14:01:01;4.53;;;4.13;;
10657;SDS011;5377;43.276;26.930;2023-06-22T14:03:28;4.13;;;3.85;;
10657;SDS011;5377;43.276;26.930;2023-06-22T14:05:56;6.45;;;3.88;;
10657;SDS011;5377;43.276;26.930;2023-06-22T14:08:23;10.07;;;4.80;;
10657;SDS011;5377;43.276;26.930;2023-06-22T14:10:50;8.35;;;4.72;;
10657;SDS011;5377;43.276;26.930;2023-06-22T14:13:18;5.45;;;4.10;;
10657;SDS011;5377;43.276;26.930;2023-06-22T14:15:45;5.15;;;4.75;;
10657;SDS011;5377;43.276;26.930;2023-06-22T14:18:13;12.90;;;5.45;;
10657;SDS011;5377;43.276;26.930;2023-06-22T14:20:40;5.72;;;4.82;;
10657;SDS011;5377;43.276;26.930;2023-06-22T14:23:08;9.45;;;5.32;;
10657;SDS011;5377;43.276;26.930;2023-06-22T14:25:35;3.85;;;3.42;;
10657;SDS011;5377;43.276;26.930;2023-06-22T14:28:02;5.32;;;4.90;;
10657;SDS011;5377;43.276;26.930;2023-06-22T14:30:29;21.48;;;7.90;;
10657;SDS011;5377;43.276;26.930;2023-06-22T14:32:56;23.27;;;7.50;;
10657;SDS011;5377;43.276;26.930;2023-06-22T14:35:22;15.73;;;5.70;;
10657;SDS011;5377;43.276;26.930;2023-06-22T14:37:50;8.95;;;4.63;;
10657;SDS011;5377;43.276;26.930;2023-06-22T14:40:18;10.65;;;5.72;;
10657;SDS011;5377;43.276;26.930;2023-06-22T14:42:45;8.35;;;5.28;;
10657;SDS011;5377;43.276;26.930;2023-06-22T14:45:12;4.22;;;3.85;;